createdAt,value
2022-08-18T00:02:43.574Z,25.10
2022-08-18T00:08:04.191Z,21.60
2022-08-18T00:13:08.759Z,22.50
2022-08-18T00:18:11.681Z,26.10
2022-08-18T00:23:15.077Z,23.13
2022-08-18T00:28:19.823Z,27.42
2022-08-18T00:33:26.962Z,25.88
2022-08-18T00:38:30.034Z,26.52
2022-08-18T00:43:40.063Z,27.75
2022-08-18T00:48:48.435Z,20.67
2022-08-18T00:53:57.274Z,25.42
2022-08-18T00:59:08.245Z,23.65
2022-08-18T01:04:16.688Z,26.08
2022-08-18T01:09:20.311Z,25.30
2022-08-18T01:14:25.111Z,23.83
2022-08-18T01:19:47.182Z,25.48
2022-08-18T01:25:14.204Z,25.58
2022-08-18T01:30:17.644Z,25.17
2022-08-18T01:35:25.787Z,25.90
2022-08-18T01:41:27.425Z,24.05
2022-08-18T01:45:53.975Z,24.70
2022-08-18T01:50:57.380Z,24.98
2022-08-18T01:56:05.593Z,25.52
2022-08-18T02:01:08.584Z,24.10
2022-08-18T02:06:14.871Z,24.00
2022-08-18T02:11:19.407Z,22.02
2022-08-18T02:16:22.489Z,24.50
2022-08-18T02:21:25.573Z,23.38
2022-08-18T02:26:30.097Z,20.52
2022-08-18T02:31:32.996Z,24.75
2022-08-18T02:36:35.949Z,23.90
2022-08-18T02:41:40.654Z,24.63
2022-08-18T02:46:44.006Z,24.40
2022-08-18T02:51:47.214Z,26.83
2022-08-18T02:56:53.141Z,23.50
2022-08-18T03:01:57.374Z,26.05
2022-08-18T03:07:04.123Z,24.83
2022-08-18T03:12:09.391Z,23.35
2022-08-18T03:17:15.441Z,23.63
2022-08-18T03:22:28.411Z,23.17
2022-08-18T03:27:34.109Z,25.13
2022-08-18T03:32:37.167Z,21.77
2022-08-18T03:37:40.913Z,22.88
2022-08-18T03:42:45.422Z,22.27
2022-08-18T03:47:50.377Z,23.25
2022-08-18T03:52:53.985Z,21.77
2022-08-18T04:03:25.330Z,22.33
2022-08-18T04:08:28.242Z,23.23
2022-08-18T04:13:36.706Z,23.40
2022-08-18T04:18:39.751Z,21.60
2022-08-18T04:23:44.129Z,26.58
2022-08-18T04:28:49.304Z,30.98
2022-08-18T04:33:53.045Z,33.72
2022-08-18T04:38:56.829Z,35.90
2022-08-18T04:44:03.808Z,30.77
2022-08-18T04:49:08.260Z,31.70
2022-08-18T04:54:12.543Z,26.27
2022-08-18T04:59:17.354Z,28.17
2022-08-18T05:04:20.671Z,26.13
2022-08-18T05:09:23.666Z,24.95
2022-08-18T05:14:28.701Z,24.52
2022-08-18T05:19:32.453Z,23.83
2022-08-18T05:24:37.310Z,21.20
2022-08-18T05:29:45.706Z,20.40
2022-08-18T05:34:50.347Z,21.50
2022-08-18T05:39:58.926Z,22.92
2022-08-18T05:45:08.030Z,20.38
2022-08-18T05:50:14.083Z,20.38
2022-08-18T05:55:39.830Z,22.67
2022-08-18T06:00:58.771Z,21.98
2022-08-18T06:06:11.142Z,20.60
2022-08-18T06:11:22.779Z,21.23
2022-08-18T06:16:44.571Z,16.02
2022-08-18T06:21:57.414Z,16.58
2022-08-18T06:27:07.895Z,17.70
2022-08-18T06:32:23.392Z,17.63
2022-08-18T06:37:33.879Z,16.17
2022-08-18T06:42:40.377Z,16.17
2022-08-18T06:47:55.037Z,15.57
2022-08-18T06:53:00.619Z,15.95
2022-08-18T06:58:07.875Z,14.70
2022-08-18T07:03:15.760Z,15.52
2022-08-18T07:08:31.031Z,14.55
2022-08-18T07:13:39.580Z,14.88
2022-08-18T07:18:47.354Z,16.70
2022-08-18T07:24:23.198Z,17.45
2022-08-18T07:29:22.627Z,14.75
2022-08-18T07:34:37.440Z,15.98
2022-08-18T07:39:48.460Z,15.73
2022-08-18T07:50:20.548Z,11.75
2022-08-18T07:55:30.271Z,13.43
2022-08-18T08:06:13.540Z,14.65
2022-08-18T08:11:29.001Z,12.23
2022-08-18T08:16:42.560Z,11.00
2022-08-18T08:21:54.077Z,10.48
2022-08-18T08:27:02.463Z,12.25
2022-08-18T08:32:11.236Z,11.52
2022-08-18T08:37:20.606Z,10.57
2022-08-18T08:42:35.394Z,9.75
2022-08-18T08:47:52.370Z,10.93
2022-08-18T08:53:05.239Z,12.02
2022-08-18T08:58:18.972Z,10.85
2022-08-18T09:03:32.108Z,11.13
2022-08-18T09:08:55.151Z,10.10
2022-08-18T09:14:24.683Z,11.07
2022-08-18T09:19:45.975Z,10.80
2022-08-18T09:24:53.120Z,10.48
2022-08-18T09:29:59.330Z,9.90
2022-08-18T09:35:17.577Z,10.55
2022-08-18T09:46:06.102Z,11.13
2022-08-18T09:51:35.008Z,9.10
2022-08-18T09:57:07.614Z,11.75
2022-08-18T10:07:41.942Z,9.32
2022-08-18T10:13:15.792Z,10.33
2022-08-18T10:18:32.461Z,12.65
2022-08-18T10:24:14.593Z,9.25
2022-08-18T10:29:51.733Z,13.25
2022-08-18T10:35:00.707Z,13.35
2022-08-18T10:40:16.363Z,11.60
2022-08-18T10:45:30.902Z,10.73
2022-08-18T10:50:42.565Z,8.15
2022-08-18T10:55:53.863Z,10.05
2022-08-18T11:06:21.138Z,9.13
2022-08-18T11:11:34.487Z,11.63
2022-08-18T11:16:54.408Z,9.52
2022-08-18T11:21:58.873Z,8.57
2022-08-18T11:27:03.810Z,9.18
2022-08-18T11:32:20.208Z,7.82
2022-08-18T11:37:51.600Z,7.78
2022-08-18T11:43:00.351Z,7.40
2022-08-18T11:48:25.110Z,7.85
2022-08-18T11:53:44.186Z,6.32
2022-08-18T11:58:50.513Z,6.10
2022-08-18T12:03:53.843Z,8.07
2022-08-18T12:09:03.093Z,7.72
2022-08-18T12:14:30.377Z,7.72
2022-08-18T12:24:58.298Z,6.55
2022-08-18T12:30:02.467Z,7.63
2022-08-18T12:35:09.495Z,7.63
2022-08-18T12:40:14.693Z,7.53
2022-08-18T12:45:18.090Z,7.55
2022-08-18T12:55:47.561Z,7.38
2022-08-18T13:00:53.865Z,7.57
2022-08-18T13:05:57.067Z,7.75
2022-08-18T13:11:14.513Z,7.35
2022-08-18T13:16:39.090Z,8.35
2022-08-18T13:21:42.917Z,7.95
2022-08-18T13:26:48.675Z,7.90
2022-08-18T13:31:57.833Z,8.75
2022-08-18T13:37:00.919Z,7.97
2022-08-18T13:42:21.715Z,8.55
2022-08-18T13:47:31.448Z,9.18
2022-08-18T13:52:44.646Z,8.90
2022-08-18T13:57:49.905Z,8.88
2022-08-18T14:02:54.055Z,8.95
2022-08-18T14:07:58.724Z,7.93
2022-08-18T14:13:11.985Z,9.38
2022-08-18T14:18:29.247Z,8.60
2022-08-18T14:24:05.902Z,8.53
2022-08-18T14:29:16.510Z,9.10
2022-08-18T14:34:21.832Z,9.15
2022-08-18T14:39:33.377Z,8.80
2022-08-18T14:44:37.749Z,8.70
2022-08-18T14:49:48.035Z,8.02
2022-08-18T14:54:51.851Z,9.18
2022-08-18T14:59:59.770Z,8.80
2022-08-18T15:05:19.228Z,8.90
2022-08-18T15:10:23.359Z,11.10
2022-08-18T15:15:50.819Z,8.30
2022-08-18T15:21:19.566Z,7.95
2022-08-18T15:26:38.750Z,7.63
2022-08-18T15:31:55.458Z,8.40
2022-08-18T15:37:09.562Z,8.80
2022-08-18T15:42:13.873Z,7.82
2022-08-18T15:47:21.038Z,8.65
2022-08-18T15:52:25.948Z,8.73
2022-08-18T15:57:51.882Z,7.55
2022-08-18T16:02:57.797Z,8.00
2022-08-18T16:08:01.490Z,7.38
2022-08-18T16:13:05.811Z,7.50
2022-08-18T16:18:10.841Z,7.80
2022-08-18T16:23:14.017Z,7.97
2022-08-18T16:28:17.119Z,8.32
2022-08-18T16:33:22.134Z,8.07
2022-08-18T16:38:25.952Z,7.57
2022-08-18T16:43:30.386Z,8.00
2022-08-18T16:48:35.195Z,8.20
2022-08-18T16:53:39.780Z,8.02
2022-08-18T16:59:02.349Z,8.05
2022-08-18T17:04:14.691Z,8.23
2022-08-18T17:09:25.216Z,8.32
2022-08-18T17:14:31.401Z,10.63
2022-08-18T17:19:37.745Z,12.00
2022-08-18T17:24:49.366Z,11.00
2022-08-18T17:29:58.874Z,11.95
2022-08-18T17:35:06.331Z,11.60
2022-08-18T17:40:15.935Z,9.25
2022-08-18T17:45:21.697Z,8.98
2022-08-18T17:50:49.603Z,8.98
2022-08-18T17:56:00.145Z,9.02
2022-08-18T18:01:06.549Z,9.20
2022-08-18T18:06:16.846Z,11.20
2022-08-18T18:11:25.635Z,10.87
2022-08-18T18:16:35.562Z,10.93
2022-08-18T18:22:00.119Z,10.50
2022-08-18T18:27:24.358Z,10.57
2022-08-18T18:32:30.609Z,10.70
2022-08-18T18:37:44.016Z,10.23
2022-08-18T18:42:51.269Z,11.32
2022-08-18T18:48:03.749Z,10.00
2022-08-18T18:53:20.140Z,11.55
2022-08-18T18:58:32.722Z,10.13
2022-08-18T19:03:44.191Z,10.77
2022-08-18T19:08:56.410Z,10.68
2022-08-18T19:14:02.961Z,10.23
2022-08-18T19:19:35.962Z,10.27
2022-08-18T19:25:05.484Z,11.20
2022-08-18T19:30:13.657Z,10.70
2022-08-18T19:35:19.898Z,12.18
2022-08-18T19:40:29.359Z,12.23
2022-08-18T19:45:36.909Z,12.60
2022-08-18T19:50:46.122Z,11.50
2022-08-18T19:56:04.896Z,12.40
2022-08-18T20:01:21.134Z,11.25
2022-08-18T20:06:52.863Z,12.10
2022-08-18T20:12:38.756Z,11.52
2022-08-18T20:18:00.812Z,11.13
2022-08-18T20:23:32.294Z,12.05
2022-08-18T20:28:39.189Z,13.43
2022-08-18T20:33:47.113Z,13.52
2022-08-18T20:38:53.887Z,14.38
2022-08-18T20:44:09.400Z,13.30
2022-08-18T20:49:23.201Z,13.10
2022-08-18T20:54:50.245Z,13.85
2022-08-18T21:00:11.215Z,13.90
2022-08-18T21:05:28.019Z,13.77
2022-08-18T21:10:34.663Z,14.07
2022-08-18T21:15:38.840Z,12.60
2022-08-18T21:20:42.230Z,12.70
2022-08-18T21:25:53.777Z,13.32
2022-08-18T21:31:42.965Z,13.25
2022-08-18T21:36:25.592Z,13.15
2022-08-18T21:41:32.582Z,13.10
2022-08-18T21:46:36.024Z,13.13
2022-08-18T21:51:45.756Z,13.60
2022-08-18T21:57:21.069Z,13.68
2022-08-18T22:02:24.249Z,12.88
2022-08-18T22:07:34.998Z,12.98
2022-08-18T22:13:10.104Z,11.60
2022-08-18T22:18:39.884Z,12.20
2022-08-18T22:24:04.644Z,11.85
2022-08-18T22:29:21.841Z,11.00
2022-08-18T22:34:28.837Z,12.32
2022-08-18T22:39:35.203Z,11.55
2022-08-18T22:44:40.602Z,11.13
2022-08-18T22:49:45.461Z,12.15
2022-08-18T22:54:49.552Z,13.18
2022-08-18T22:59:55.426Z,11.45
2022-08-18T23:05:01.880Z,12.13
2022-08-18T23:10:12.528Z,12.77
2022-08-18T23:15:19.493Z,12.30
2022-08-18T23:20:22.765Z,12.45
2022-08-18T23:25:31.014Z,13.07
2022-08-18T23:30:35.681Z,12.88
2022-08-18T23:35:39.769Z,11.35
2022-08-18T23:40:45.208Z,12.88
2022-08-18T23:45:50.276Z,12.38
2022-08-18T23:50:53.163Z,14.07
2022-08-18T23:55:56.043Z,12.10
